createdAt,value
2019-03-30T00:02:06.407Z,76.79
2019-03-30T00:04:36.733Z,76.73
2019-03-30T00:07:07.178Z,76.61
2019-03-30T00:09:37.601Z,77.31
2019-03-30T00:12:07.694Z,77.18
2019-03-30T00:14:37.725Z,77.73
2019-03-30T00:17:08.006Z,78.08
2019-03-30T00:19:37.996Z,77.86
2019-03-30T00:22:08.515Z,78.38
2019-03-30T00:24:38.931Z,78.21
2019-03-30T00:27:09.301Z,77.85
2019-03-30T00:29:39.363Z,77.46
2019-03-30T00:32:09.528Z,77.46
2019-03-30T00:34:39.710Z,76.92
2019-03-30T00:37:10.216Z,76.90
2019-03-30T00:39:40.437Z,76.90
2019-03-30T00:42:10.597Z,76.93
2019-03-30T00:44:40.777Z,77.04
2019-03-30T00:47:10.822Z,76.59
2019-03-30T00:49:49.140Z,76.59
2019-03-30T00:52:12.952Z,77.21
2019-03-30T00:54:43.074Z,77.21
2019-03-30T00:57:13.150Z,76.87
2019-03-30T00:59:43.484Z,76.87
2019-03-30T01:02:13.491Z,77.60
2019-03-30T01:04:43.608Z,77.60
2019-03-30T01:07:15.802Z,77.48
2019-03-30T01:09:46.034Z,77.27
2019-03-30T01:12:16.411Z,77.27
2019-03-30T01:14:46.552Z,77.03
2019-03-30T01:17:16.707Z,77.08
2019-03-30T01:19:47.210Z,77.09
2019-03-30T01:22:17.461Z,77.21
2019-03-30T01:24:47.818Z,77.21
2019-03-30T01:27:18.366Z,77.09
2019-03-30T01:29:48.511Z,77.23
2019-03-30T01:32:18.546Z,76.99
2019-03-30T01:34:48.930Z,77.75
2019-03-30T01:37:19.284Z,77.75
2019-03-30T01:39:49.295Z,78.02
2019-03-30T01:42:19.538Z,77.45
2019-03-30T01:44:49.794Z,77.27
2019-03-30T01:47:20.328Z,78.19
2019-03-30T01:49:50.647Z,77.87
2019-03-30T01:52:21.322Z,77.63
2019-03-30T01:54:51.401Z,77.96
2019-03-30T01:57:21.754Z,78.25
2019-03-30T01:59:52.181Z,77.74
2019-03-30T02:02:22.439Z,78.14
2019-03-30T02:04:52.743Z,78.14
2019-03-30T02:07:23.256Z,78.41
2019-03-30T02:09:53.366Z,78.21
2019-03-30T02:12:23.510Z,78.21
2019-03-30T02:14:53.841Z,77.88
2019-03-30T02:17:23.850Z,77.88
2019-03-30T02:19:53.990Z,77.67
2019-03-30T02:22:24.567Z,77.73
2019-03-30T02:24:54.635Z,78.48
2019-03-30T02:27:24.889Z,78.11
2019-03-30T02:29:54.991Z,77.82
2019-03-30T02:32:25.029Z,77.74
2019-03-30T02:34:55.147Z,77.74
2019-03-30T02:37:25.475Z,78.08
2019-03-30T02:39:55.522Z,78.08
2019-03-30T02:42:25.751Z,78.04
2019-03-30T02:44:55.804Z,77.95
2019-03-30T02:47:26.286Z,78.00
2019-03-30T02:49:56.377Z,78.00
2019-03-30T02:52:26.706Z,78.43
2019-03-30T02:54:56.952Z,78.30
2019-03-30T02:57:27.133Z,78.11
2019-03-30T02:59:57.221Z,78.22
2019-03-30T03:02:27.865Z,78.21
2019-03-30T03:04:57.936Z,78.08
2019-03-30T03:07:28.646Z,78.18
2019-03-30T03:09:58.878Z,78.34
2019-03-30T03:12:29.153Z,78.34
2019-03-30T03:14:59.372Z,78.36
2019-03-30T03:17:29.578Z,78.31
2019-03-30T03:19:59.699Z,79.14
2019-03-30T03:22:30.053Z,79.03
2019-03-30T03:25:00.635Z,78.75
2019-03-30T03:27:30.756Z,78.41
2019-03-30T03:30:01.318Z,78.38
2019-03-30T03:32:31.705Z,78.58
2019-03-30T03:35:01.831Z,79.41
2019-03-30T03:37:44.755Z,79.35
2019-03-30T03:40:05.185Z,78.93
2019-03-30T03:42:35.471Z,78.82
2019-03-30T03:45:06.110Z,78.55
2019-03-30T03:47:36.651Z,78.50
2019-03-30T03:50:07.202Z,78.69
2019-03-30T03:52:38.055Z,78.59
2019-03-30T03:55:08.115Z,78.58
2019-03-30T03:57:41.042Z,78.52
2019-03-30T04:00:12.363Z,78.87
2019-03-30T04:02:45.310Z,78.75
2019-03-30T04:05:15.343Z,78.43
2019-03-30T04:07:49.513Z,78.68
2019-03-30T04:10:20.522Z,78.69
2019-03-30T04:12:51.436Z,78.55
2019-03-30T04:15:27.930Z,78.25
2019-03-30T04:17:58.205Z,78.39
2019-03-30T04:20:28.452Z,78.35
2019-03-30T04:22:58.570Z,78.26
2019-03-30T04:25:28.917Z,78.91
2019-03-30T04:27:59.005Z,78.56
2019-03-30T04:30:29.302Z,78.77
2019-03-30T04:32:59.423Z,78.65
2019-03-30T04:35:29.564Z,78.77
2019-03-30T04:38:00.071Z,78.99
2019-03-30T04:40:30.128Z,79.14
2019-03-30T04:43:00.178Z,79.50
2019-03-30T04:45:30.328Z,79.10
2019-03-30T04:48:00.378Z,79.10
2019-03-30T04:50:30.499Z,78.84
2019-03-30T04:53:00.914Z,78.74
2019-03-30T04:55:30.939Z,78.44
2019-03-30T04:58:00.958Z,78.44
2019-03-30T05:00:31.249Z,78.82
2019-03-30T05:03:01.281Z,78.85
2019-03-30T05:05:31.482Z,78.56
2019-03-30T05:08:01.747Z,79.17
2019-03-30T05:10:31.769Z,78.71
2019-03-30T05:13:02.085Z,78.71
2019-03-30T05:15:32.307Z,78.95
2019-03-30T05:18:02.735Z,78.87
2019-03-30T05:20:33.039Z,78.87
2019-03-30T05:23:03.190Z,79.12
2019-03-30T05:25:33.262Z,79.00
2019-03-30T05:28:03.391Z,79.29
2019-03-30T05:30:33.431Z,79.29
2019-03-30T05:33:05.914Z,79.00
2019-03-30T05:35:36.494Z,78.89
2019-03-30T05:38:07.945Z,78.75
2019-03-30T05:40:43.409Z,78.90
2019-03-30T05:43:16.386Z,79.17
2019-03-30T05:45:48.932Z,79.15
2019-03-30T05:48:19.588Z,79.15
2019-03-30T05:50:49.973Z,79.16
2019-03-30T05:53:23.638Z,79.17
2019-03-30T05:55:53.899Z,78.97
2019-03-30T05:58:24.598Z,78.97
2019-03-30T06:00:55.345Z,78.87
2019-03-30T06:03:26.283Z,78.90
2019-03-30T06:05:56.448Z,78.75
2019-03-30T06:08:26.622Z,78.59
2019-03-30T06:10:57.324Z,78.55
2019-03-30T06:13:27.656Z,78.41
2019-03-30T06:15:58.082Z,78.33
2019-03-30T06:18:28.173Z,78.13
2019-03-30T06:20:58.452Z,78.13
2019-03-30T06:23:28.848Z,78.16
2019-03-30T06:25:58.935Z,77.92
2019-03-30T06:28:28.998Z,77.75
2019-03-30T06:30:59.314Z,77.56
2019-03-30T06:33:29.468Z,77.64
2019-03-30T06:35:59.944Z,77.56
2019-03-30T06:38:30.176Z,77.40
2019-03-30T06:41:00.152Z,77.51
2019-03-30T06:43:30.468Z,77.40
2019-03-30T06:46:01.267Z,77.48
2019-03-30T06:48:31.698Z,77.35
2019-03-30T06:51:01.824Z,77.32
2019-03-30T06:53:32.367Z,77.57
2019-03-30T06:56:02.537Z,77.57
2019-03-30T06:58:33.177Z,77.39
2019-03-30T07:01:03.273Z,77.22
2019-03-30T07:03:33.686Z,77.36
2019-03-30T07:06:04.497Z,77.42
2019-03-30T07:08:35.780Z,77.45
2019-03-30T07:11:20.174Z,77.45
2019-03-30T07:13:40.227Z,77.37
2019-03-30T07:16:10.679Z,77.41
2019-03-30T07:18:43.402Z,77.80
2019-03-30T07:21:13.790Z,78.22
2019-03-30T07:23:44.203Z,78.21
2019-03-30T07:26:14.258Z,78.11
2019-03-30T07:28:47.125Z,78.10
2019-03-30T07:31:16.517Z,78.11
2019-03-30T07:33:46.952Z,77.79
2019-03-30T07:36:17.264Z,77.79
2019-03-30T07:38:47.807Z,78.25
2019-03-30T07:41:18.184Z,78.15
2019-03-30T07:43:48.449Z,78.24
2019-03-30T07:46:19.718Z,78.11
2019-03-30T07:48:50.042Z,78.15
2019-03-30T07:51:20.082Z,78.19
2019-03-30T07:53:50.619Z,78.25
2019-03-30T07:56:20.885Z,78.14
2019-03-30T07:58:51.285Z,77.97
2019-03-30T08:01:21.322Z,77.93
2019-03-30T08:03:51.532Z,77.93
2019-03-30T08:06:21.784Z,78.33
2019-03-30T08:08:52.364Z,78.33
2019-03-30T08:11:22.344Z,78.89
2019-03-30T08:13:52.422Z,78.87
2019-03-30T08:16:22.827Z,78.57
2019-03-30T08:18:52.851Z,78.45
2019-03-30T08:21:23.108Z,78.66
2019-03-30T08:23:53.362Z,78.81
2019-03-30T08:26:23.482Z,78.95
2019-03-30T08:28:53.757Z,79.03
2019-03-30T08:31:23.753Z,78.72
2019-03-30T08:33:53.767Z,78.35
2019-03-30T08:36:24.093Z,78.62
2019-03-30T08:38:54.239Z,78.26
2019-03-30T08:41:24.336Z,78.52
2019-03-30T08:43:54.791Z,78.02
2019-03-30T08:46:24.936Z,78.02
2019-03-30T08:48:55.315Z,78.46
2019-03-30T08:51:25.467Z,78.20
2019-03-30T08:53:56.069Z,78.33
2019-03-30T08:56:28.055Z,78.09
2019-03-30T08:58:58.807Z,77.87
2019-03-30T09:01:28.931Z,77.67
2019-03-30T09:03:59.240Z,77.71
2019-03-30T09:06:29.749Z,77.86
2019-03-30T09:09:00.205Z,78.74
2019-03-30T09:11:30.684Z,78.19
2019-03-30T09:14:01.103Z,78.13
2019-03-30T09:16:31.278Z,77.88
2019-03-30T09:19:01.620Z,77.69
2019-03-30T09:21:31.895Z,77.55
2019-03-30T09:24:09.384Z,77.53
2019-03-30T09:26:34.486Z,77.43
2019-03-30T09:29:04.665Z,77.25
2019-03-30T09:31:35.058Z,77.16
2019-03-30T09:34:05.356Z,77.35
2019-03-30T09:36:35.691Z,77.49
2019-03-30T09:39:07.571Z,77.04
2019-03-30T09:41:37.659Z,77.04
2019-03-30T09:44:07.753Z,77.76
2019-03-30T09:46:38.026Z,77.80
2019-03-30T09:49:08.321Z,78.05
2019-03-30T09:51:38.607Z,78.00
2019-03-30T09:54:22.824Z,78.01
2019-03-30T09:56:41.140Z,78.08
2019-03-30T09:59:11.651Z,77.99
2019-03-30T10:01:42.160Z,77.99
2019-03-30T10:04:12.320Z,77.79
2019-03-30T10:06:42.627Z,77.85
2019-03-30T10:09:13.046Z,77.71
2019-03-30T10:11:43.142Z,77.54
2019-03-30T10:14:13.340Z,77.21
2019-03-30T10:16:48.588Z,77.21
2019-03-30T10:19:17.319Z,77.42
2019-03-30T10:21:47.715Z,77.51
2019-03-30T10:24:18.493Z,77.64
2019-03-30T10:26:48.947Z,77.77
2019-03-30T10:29:19.178Z,77.63
2019-03-30T10:31:50.017Z,77.63
2019-03-30T10:34:20.446Z,77.00
2019-03-30T10:36:50.889Z,77.09
2019-03-30T10:39:21.582Z,77.10
2019-03-30T10:41:52.081Z,77.10
2019-03-30T10:44:22.342Z,76.84
2019-03-30T10:46:52.591Z,76.90
2019-03-30T10:49:23.017Z,77.00
2019-03-30T10:51:54.409Z,76.91
2019-03-30T10:54:25.170Z,76.79
2019-03-30T10:56:55.653Z,77.17
2019-03-30T10:59:26.414Z,77.06
2019-03-30T11:01:56.944Z,76.87
2019-03-30T11:04:27.517Z,76.84
2019-03-30T11:06:57.907Z,76.77
2019-03-30T11:09:28.720Z,76.64
2019-03-30T11:11:58.929Z,76.82
2019-03-30T11:14:29.267Z,76.64
2019-03-30T11:16:59.558Z,76.43
2019-03-30T11:19:29.694Z,76.43
2019-03-30T11:22:02.993Z,76.24
2019-03-30T11:24:32.380Z,76.44
2019-03-30T11:27:02.977Z,76.46
2019-03-30T11:29:33.165Z,76.20
2019-03-30T11:32:03.532Z,76.16
2019-03-30T11:34:34.189Z,76.39
2019-03-30T11:37:05.516Z,76.33
2019-03-30T11:39:36.115Z,75.75
2019-03-30T11:42:06.301Z,75.49
2019-03-30T11:44:36.649Z,75.35
2019-03-30T11:47:07.022Z,75.19
2019-03-30T11:49:37.262Z,74.57
2019-03-30T11:52:07.328Z,74.22
2019-03-30T11:54:37.843Z,74.52
2019-03-30T11:57:08.351Z,74.09
2019-03-30T11:59:39.014Z,73.24
2019-03-30T12:02:09.324Z,73.24
2019-03-30T12:04:39.730Z,73.19
2019-03-30T12:07:10.071Z,73.13
2019-03-30T12:09:40.475Z,72.76
2019-03-30T12:12:11.228Z,72.04
2019-03-30T12:14:42.156Z,71.97
2019-03-30T12:17:12.910Z,71.58
2019-03-30T12:19:43.371Z,71.18
2019-03-30T12:22:13.703Z,71.26
2019-03-30T12:24:44.325Z,71.24
2019-03-30T12:27:18.754Z,71.16
2019-03-30T12:29:49.703Z,71.18
2019-03-30T12:32:20.304Z,71.29
2019-03-30T12:34:50.939Z,71.41
2019-03-30T12:37:21.490Z,71.46
2019-03-30T12:39:52.157Z,71.58
2019-03-30T12:42:22.669Z,71.70
2019-03-30T12:44:53.141Z,72.59
2019-03-30T12:47:23.847Z,73.03
2019-03-30T12:49:54.565Z,73.21
2019-03-30T12:52:26.519Z,73.21
2019-03-30T12:54:57.224Z,74.16
2019-03-30T12:57:27.655Z,74.14
2019-03-30T12:59:59.305Z,74.14
2019-03-30T13:02:29.583Z,73.91
2019-03-30T13:05:00.110Z,74.45
2019-03-30T13:07:30.336Z,74.45
2019-03-30T13:10:00.663Z,74.36
2019-03-30T13:12:31.248Z,74.41
2019-03-30T13:15:01.512Z,74.83
2019-03-30T13:17:32.003Z,74.89
2019-03-30T13:20:02.235Z,75.16
2019-03-30T13:22:32.459Z,75.41
2019-03-30T13:25:02.984Z,75.49
2019-03-30T13:27:32.985Z,75.72
2019-03-30T13:30:03.318Z,75.82
2019-03-30T13:32:33.853Z,76.30
2019-03-30T13:35:04.311Z,75.96
2019-03-30T13:37:34.552Z,76.33
2019-03-30T13:40:05.467Z,76.29
2019-03-30T13:42:36.111Z,76.00
2019-03-30T13:45:07.337Z,76.30
2019-03-30T13:47:37.747Z,76.22
2019-03-30T13:50:09.288Z,76.04
2019-03-30T13:52:39.612Z,75.99
2019-03-30T13:55:09.758Z,75.98
2019-03-30T13:57:39.857Z,75.96
2019-03-30T14:00:10.424Z,75.88
2019-03-30T14:02:43.913Z,75.64
2019-03-30T14:05:12.810Z,75.44
2019-03-30T14:07:42.977Z,75.10
2019-03-30T14:10:14.172Z,75.36
2019-03-30T14:12:44.397Z,75.35
2019-03-30T14:15:15.040Z,75.25
2019-03-30T14:17:45.326Z,75.22
2019-03-30T14:20:15.431Z,75.10
2019-03-30T14:22:46.088Z,75.09
2019-03-30T14:25:16.402Z,75.08
2019-03-30T14:27:46.922Z,75.07
2019-03-30T14:30:17.758Z,75.07
2019-03-30T14:32:48.266Z,75.02
2019-03-30T14:35:18.840Z,75.12
2019-03-30T14:37:49.520Z,75.27
2019-03-30T14:40:22.577Z,75.37
2019-03-30T14:42:55.815Z,75.39
2019-03-30T14:45:26.205Z,75.21
2019-03-30T14:47:58.024Z,75.35
2019-03-30T14:50:28.537Z,75.29
2019-03-30T14:52:58.679Z,75.37
2019-03-30T14:55:29.136Z,75.19
2019-03-30T14:57:59.426Z,75.21
2019-03-30T15:00:29.730Z,75.48
2019-03-30T15:03:00.301Z,75.63
2019-03-30T15:05:31.004Z,75.73
2019-03-30T15:08:01.241Z,75.51
2019-03-30T15:10:32.277Z,75.27
2019-03-30T15:13:02.780Z,75.58
2019-03-30T15:15:32.870Z,75.78
2019-03-30T15:18:03.359Z,76.12
2019-03-30T15:20:33.677Z,76.16
2019-03-30T15:23:03.957Z,76.20
2019-03-30T15:25:34.775Z,76.16
2019-03-30T15:28:05.071Z,76.24
2019-03-30T15:30:38.126Z,76.14
2019-03-30T15:33:08.983Z,75.99
2019-03-30T15:35:39.108Z,76.10
2019-03-30T15:38:09.404Z,76.20
2019-03-30T15:40:40.356Z,76.17
2019-03-30T15:43:10.646Z,75.95
2019-03-30T15:45:40.742Z,75.83
2019-03-30T15:48:11.359Z,75.72
2019-03-30T15:50:41.538Z,75.71
2019-03-30T15:53:12.193Z,75.83
2019-03-30T15:55:42.857Z,75.91
2019-03-30T15:58:13.162Z,75.99
2019-03-30T16:00:43.556Z,76.12
2019-03-30T16:03:14.248Z,76.12
2019-03-30T16:05:44.582Z,76.10
2019-03-30T16:08:15.103Z,76.02
2019-03-30T16:10:45.577Z,76.02
2019-03-30T16:13:16.048Z,76.04
2019-03-30T16:15:46.333Z,76.30
2019-03-30T16:18:17.356Z,76.26
2019-03-30T16:20:47.635Z,76.23
2019-03-30T16:23:18.057Z,76.24
2019-03-30T16:25:48.500Z,76.21
2019-03-30T16:28:18.765Z,76.21
2019-03-30T16:30:49.373Z,76.09
2019-03-30T16:33:19.650Z,76.28
2019-03-30T16:35:50.409Z,76.38
2019-03-30T16:38:20.932Z,76.52
2019-03-30T16:40:51.645Z,76.65
2019-03-30T16:43:22.069Z,76.48
2019-03-30T16:45:52.282Z,76.37
2019-03-30T16:48:22.559Z,75.50
2019-03-30T16:50:53.090Z,75.19
2019-03-30T16:53:23.217Z,74.77
2019-03-30T16:55:53.333Z,74.54
2019-03-30T16:58:23.623Z,74.64
2019-03-30T17:00:56.766Z,74.64
2019-03-30T17:03:26.109Z,74.83
2019-03-30T17:05:56.248Z,75.18
2019-03-30T17:08:26.218Z,75.91
2019-03-30T17:10:56.658Z,75.91
2019-03-30T17:13:26.873Z,76.07
2019-03-30T17:15:58.733Z,75.68
2019-03-30T17:18:28.924Z,75.72
2019-03-30T17:20:59.067Z,76.10
2019-03-30T17:23:29.390Z,76.14
2019-03-30T17:25:59.935Z,76.31
2019-03-30T17:28:30.297Z,76.46
2019-03-30T17:31:00.304Z,77.29
2019-03-30T17:33:30.944Z,77.29
2019-03-30T17:36:01.119Z,77.32
2019-03-30T17:38:31.283Z,77.26
2019-03-30T17:41:01.663Z,77.25
2019-03-30T17:43:31.863Z,77.29
2019-03-30T17:46:02.205Z,77.13
2019-03-30T17:48:32.722Z,77.38
2019-03-30T17:51:03.095Z,77.38
2019-03-30T17:53:33.186Z,78.48
2019-03-30T17:56:03.404Z,78.48
2019-03-30T17:58:33.959Z,78.28
2019-03-30T18:01:04.195Z,78.82
2019-03-30T18:03:34.386Z,78.82
2019-03-30T18:06:04.709Z,78.28
2019-03-30T18:08:37.558Z,78.89
2019-03-30T18:11:07.928Z,79.50
2019-03-30T18:13:38.197Z,78.98
2019-03-30T18:16:08.444Z,79.07
2019-03-30T18:18:38.909Z,78.91
2019-03-30T18:21:08.884Z,79.39
2019-03-30T18:23:39.089Z,78.56
2019-03-30T18:26:09.326Z,78.80
2019-03-30T18:28:39.556Z,79.82
2019-03-30T18:31:10.030Z,79.82
2019-03-30T18:33:40.144Z,79.97
2019-03-30T18:36:10.197Z,79.78
2019-03-30T18:38:41.636Z,79.43
2019-03-30T18:41:11.763Z,80.86
2019-03-30T18:43:42.353Z,80.86
2019-03-30T18:46:12.951Z,80.64
2019-03-30T18:48:43.378Z,80.59
2019-03-30T18:51:13.659Z,80.42
2019-03-30T18:53:44.465Z,80.99
2019-03-30T18:56:14.762Z,80.60
2019-03-30T18:58:45.134Z,80.60
2019-03-30T19:01:15.246Z,80.51
2019-03-30T19:03:45.512Z,80.60
2019-03-30T19:06:15.903Z,80.67
2019-03-30T19:08:46.164Z,80.63
2019-03-30T19:11:16.457Z,80.40
2019-03-30T19:13:46.837Z,80.05
2019-03-30T19:16:16.983Z,80.36
2019-03-30T19:18:47.688Z,80.34
2019-03-30T19:21:17.927Z,80.20
2019-03-30T19:23:48.328Z,80.24
2019-03-30T19:26:18.475Z,79.96
2019-03-30T19:28:56.131Z,79.75
2019-03-30T19:31:20.752Z,79.37
2019-03-30T19:33:50.905Z,79.43
2019-03-30T19:36:21.314Z,79.51
2019-03-30T19:38:51.535Z,80.20
2019-03-30T19:41:21.672Z,80.28
2019-03-30T19:43:52.181Z,79.83
2019-03-30T19:46:22.325Z,79.29
2019-03-30T19:48:52.486Z,79.12
2019-03-30T19:51:22.945Z,78.84
2019-03-30T19:53:53.059Z,78.38
2019-03-30T19:56:23.280Z,78.26
2019-03-30T19:58:53.569Z,77.94
2019-03-30T20:01:23.693Z,78.22
2019-03-30T20:03:54.073Z,78.21
2019-03-30T20:06:24.246Z,78.06
2019-03-30T20:08:55.037Z,77.86
2019-03-30T20:11:25.740Z,77.54
2019-03-30T20:13:56.532Z,77.57
2019-03-30T20:16:26.963Z,77.57
2019-03-30T20:19:11.597Z,77.85
2019-03-30T20:21:29.655Z,77.87
2019-03-30T20:24:00.256Z,77.89
2019-03-30T20:26:30.709Z,77.96
2019-03-30T20:29:01.416Z,78.71
2019-03-30T20:31:31.759Z,78.71
2019-03-30T20:34:02.566Z,78.65
2019-03-30T20:36:35.193Z,78.65
2019-03-30T20:39:08.204Z,78.16
2019-03-30T20:41:37.888Z,78.16
2019-03-30T20:44:08.399Z,78.36
2019-03-30T20:46:38.652Z,77.92
2019-03-30T20:49:09.044Z,77.92
2019-03-30T20:51:39.175Z,75.96
2019-03-30T20:54:09.306Z,74.63
2019-03-30T20:56:39.969Z,74.63
2019-03-30T20:59:10.255Z,74.43
2019-03-30T21:01:40.732Z,73.75
2019-03-30T21:04:11.215Z,74.01
2019-03-30T21:06:41.600Z,73.63
2019-03-30T21:09:12.184Z,73.25
2019-03-30T21:11:42.550Z,73.25
2019-03-30T21:14:12.759Z,73.76
2019-03-30T21:16:43.322Z,73.76
2019-03-30T21:19:13.614Z,73.47
2019-03-30T21:21:44.086Z,74.17
2019-03-30T21:24:14.632Z,74.08
2019-03-30T21:26:45.207Z,74.08
2019-03-30T21:29:15.700Z,73.67
2019-03-30T21:31:49.119Z,73.67
2019-03-30T21:34:18.422Z,74.20
2019-03-30T21:36:48.974Z,74.28
2019-03-30T21:39:19.326Z,74.26
2019-03-30T21:41:50.271Z,74.17
2019-03-30T21:44:22.286Z,74.20
2019-03-30T21:46:52.975Z,73.96
2019-03-30T21:49:23.276Z,74.06
2019-03-30T21:51:53.535Z,73.84
2019-03-30T21:54:23.928Z,73.51
2019-03-30T21:56:54.287Z,73.84
2019-03-30T21:59:24.685Z,73.62
2019-03-30T22:01:55.194Z,73.67
2019-03-30T22:04:25.514Z,73.81
2019-03-30T22:06:56.020Z,74.15
2019-03-30T22:09:26.369Z,74.27
2019-03-30T22:11:57.129Z,74.27
2019-03-30T22:14:27.611Z,74.21
2019-03-30T22:16:58.031Z,73.91
2019-03-30T22:19:28.374Z,73.91
2019-03-30T22:21:58.647Z,73.89
2019-03-30T22:24:29.209Z,73.86
2019-03-30T22:26:59.702Z,73.43
2019-03-30T22:29:30.121Z,72.83
2019-03-30T22:32:00.328Z,72.83
2019-03-30T22:34:30.600Z,73.11
2019-03-30T22:37:00.919Z,73.67
2019-03-30T22:39:31.255Z,73.67
2019-03-30T22:42:01.730Z,73.80
2019-03-30T22:44:32.424Z,73.98
2019-03-30T22:47:02.558Z,74.27
2019-03-30T22:49:33.317Z,74.38
2019-03-30T22:52:03.536Z,74.56
2019-03-30T22:54:34.140Z,74.58
2019-03-30T22:57:04.834Z,74.52
2019-03-30T22:59:35.270Z,75.10
2019-03-30T23:02:05.925Z,75.15
2019-03-30T23:04:36.409Z,75.26
2019-03-30T23:07:06.547Z,76.32
2019-03-30T23:09:37.024Z,76.32
2019-03-30T23:12:07.434Z,75.92
2019-03-30T23:14:38.226Z,75.55
2019-03-30T23:17:08.555Z,75.41
2019-03-30T23:19:38.771Z,75.22
2019-03-30T23:22:09.184Z,75.02
2019-03-30T23:24:39.475Z,75.02
2019-03-30T23:27:10.048Z,74.63
2019-03-30T23:29:40.224Z,74.44
2019-03-30T23:32:10.652Z,74.55
2019-03-30T23:34:40.920Z,74.58
2019-03-30T23:37:11.419Z,74.58
2019-03-30T23:39:41.626Z,74.71
2019-03-30T23:42:12.345Z,74.65
2019-03-30T23:44:42.584Z,74.65
2019-03-30T23:47:12.710Z,74.71
2019-03-30T23:49:43.509Z,74.71
2019-03-30T23:52:14.125Z,74.99
2019-03-30T23:54:44.476Z,75.15
2019-03-30T23:57:14.732Z,75.04
2019-03-30T23:59:45.312Z,75.04
